createdAt,value
2023-04-28T00:00:31.704Z,12.40
2023-04-28T00:03:17.498Z,12.50
2023-04-28T00:06:03.483Z,12.50
2023-04-28T00:08:49.014Z,12.50
2023-04-28T00:11:34.550Z,12.40
2023-04-28T00:14:20.184Z,12.30
2023-04-28T00:17:05.931Z,12.40
2023-04-28T00:19:51.497Z,12.30
2023-04-28T00:22:36.740Z,12.30
2023-04-28T00:25:22.403Z,12.30
2023-04-28T00:28:07.877Z,12.40
2023-04-28T00:30:53.637Z,12.30
2023-04-28T00:33:42.640Z,12.30
2023-04-28T00:36:32.120Z,12.30
2023-04-28T00:39:18.603Z,12.30
2023-04-28T00:42:04.828Z,12.30
2023-04-28T00:44:50.378Z,12.20
2023-04-28T00:47:37.154Z,12.20
2023-04-28T00:50:23.157Z,12.30
2023-04-28T00:53:08.599Z,12.20
2023-04-28T00:55:54.193Z,12.20
2023-04-28T00:58:40.422Z,12.20
2023-04-28T01:01:25.940Z,12.20
2023-04-28T01:04:11.929Z,12.20
2023-04-28T01:07:00.870Z,12.10
2023-04-28T01:09:47.950Z,12.10
2023-04-28T01:12:36.874Z,12.10
2023-04-28T01:15:22.378Z,12.10
2023-04-28T01:18:10.524Z,12.10
2023-04-28T01:20:56.284Z,12.20
2023-04-28T01:23:41.760Z,12.10
2023-04-28T01:26:27.358Z,12.10
2023-04-28T01:29:12.676Z,12.10
2023-04-28T01:31:58.379Z,12.10
2023-04-28T01:34:43.746Z,12.10
2023-04-28T01:37:29.546Z,12.10
2023-04-28T01:40:15.156Z,12.10
2023-04-28T01:43:00.965Z,12.00
2023-04-28T01:45:48.982Z,12.00
2023-04-28T01:48:34.509Z,12.00
2023-04-28T01:51:20.348Z,12.10
2023-04-28T01:54:05.878Z,12.10
2023-04-28T01:56:51.221Z,12.10
2023-04-28T01:59:38.447Z,12.10
2023-04-28T02:02:25.040Z,12.10
2023-04-28T02:05:11.370Z,12.00
2023-04-28T02:07:57.078Z,11.90
2023-04-28T02:10:42.404Z,12.00
2023-04-28T02:13:28.010Z,11.90
2023-04-28T02:16:13.721Z,11.90
2023-04-28T02:19:01.108Z,11.80
2023-04-28T02:21:46.700Z,11.90
2023-04-28T02:24:34.738Z,11.80
2023-04-28T02:27:21.488Z,11.90
2023-04-28T02:30:07.642Z,11.90
2023-04-28T02:32:53.277Z,11.90
2023-04-28T02:35:38.952Z,11.90
2023-04-28T02:38:24.576Z,12.00
2023-04-28T02:41:10.177Z,11.90
2023-04-28T02:43:56.932Z,11.90
2023-04-28T02:46:42.684Z,12.00
2023-04-28T02:49:28.231Z,12.00
2023-04-28T02:52:13.982Z,11.90
2023-04-28T02:54:59.605Z,11.90
2023-04-28T02:57:45.426Z,11.80
2023-04-28T03:00:30.867Z,11.90
2023-04-28T03:03:16.679Z,11.80
2023-04-28T03:06:02.570Z,11.80
2023-04-28T03:08:48.146Z,11.80
2023-04-28T03:11:33.784Z,11.80
2023-04-28T03:14:20.145Z,11.80
2023-04-28T03:17:05.786Z,11.80
2023-04-28T03:19:51.440Z,11.70
2023-04-28T03:22:37.008Z,11.80
2023-04-28T03:25:22.613Z,11.80
2023-04-28T03:28:10.766Z,11.90
2023-04-28T03:30:56.675Z,11.90
2023-04-28T03:33:42.529Z,11.80
2023-04-28T03:36:28.736Z,11.80
2023-04-28T03:39:19.113Z,11.80
2023-04-28T03:42:04.838Z,11.80
2023-04-28T03:44:56.384Z,11.80
2023-04-28T03:47:42.142Z,9.50
2023-04-28T03:50:27.695Z,11.70
2023-04-28T03:53:13.966Z,11.70
2023-04-28T03:55:59.676Z,11.70
2023-04-28T03:58:45.457Z,11.70
2023-04-28T04:01:30.918Z,11.80
2023-04-28T04:04:17.042Z,11.80
2023-04-28T04:07:04.202Z,11.80
2023-04-28T04:09:49.848Z,11.80
2023-04-28T04:12:35.921Z,11.80
2023-04-28T04:15:21.656Z,11.80
2023-04-28T04:18:07.988Z,11.80
2023-04-28T04:21:19.195Z,11.80
2023-04-28T04:24:06.311Z,11.80
2023-04-28T04:26:52.114Z,11.80
2023-04-28T04:29:48.851Z,11.70
2023-04-28T04:32:34.598Z,11.80
2023-04-28T04:35:20.331Z,11.70
2023-04-28T04:38:07.393Z,11.70
2023-04-28T04:40:53.477Z,11.70
2023-04-28T04:43:39.154Z,11.70
2023-04-28T04:46:24.847Z,11.60
2023-04-28T04:49:10.749Z,11.70
2023-04-28T04:51:56.358Z,11.80
2023-04-28T04:54:41.974Z,11.80
2023-04-28T04:57:29.372Z,11.80
2023-04-28T05:00:28.168Z,11.70
2023-04-28T05:03:13.745Z,11.80
2023-04-28T05:06:01.526Z,11.80
2023-04-28T05:08:59.300Z,11.80
2023-04-28T05:11:46.179Z,11.80
2023-04-28T05:14:31.538Z,11.80
2023-04-28T05:17:17.342Z,11.80
2023-04-28T05:20:03.387Z,11.80
2023-04-28T05:22:49.050Z,11.80
2023-04-28T05:25:34.847Z,11.80
2023-04-28T05:28:22.091Z,11.80
2023-04-28T05:31:09.398Z,11.80
2023-04-28T05:33:55.021Z,11.80
2023-04-28T05:36:40.636Z,11.80
2023-04-28T05:39:28.598Z,11.90
2023-04-28T05:42:16.476Z,11.90
2023-04-28T05:45:02.791Z,11.90
2023-04-28T05:47:48.404Z,11.90
2023-04-28T05:50:33.923Z,11.90
2023-04-28T05:53:20.688Z,11.90
2023-04-28T05:56:07.897Z,12.10
2023-04-28T05:58:53.528Z,12.20
2023-04-28T06:01:39.170Z,12.10
2023-04-28T06:04:26.499Z,12.20
2023-04-28T06:07:12.606Z,12.20
2023-04-28T06:09:58.254Z,12.10
2023-04-28T06:12:44.213Z,12.10
2023-04-28T06:15:30.077Z,12.30
2023-04-28T06:18:18.714Z,12.20
2023-04-28T06:21:04.286Z,12.10
2023-04-28T06:23:49.837Z,12.20
2023-04-28T06:26:36.030Z,12.30
2023-04-28T06:29:23.328Z,12.30
2023-04-28T06:32:09.911Z,12.20
2023-04-28T06:34:57.802Z,12.20
2023-04-28T06:37:44.981Z,12.30
2023-04-28T06:40:30.684Z,12.40
2023-04-28T06:43:17.645Z,12.30
2023-04-28T06:46:13.927Z,12.40
2023-04-28T06:49:01.297Z,12.40
2023-04-28T06:51:47.104Z,12.50
2023-04-28T06:54:32.728Z,12.50
2023-04-28T06:57:18.472Z,12.50
2023-04-28T07:00:04.707Z,12.60
2023-04-28T07:02:50.168Z,12.50
2023-04-28T07:05:36.359Z,12.60
2023-04-28T07:08:22.130Z,12.60
2023-04-28T07:11:07.926Z,12.60
2023-04-28T07:13:53.649Z,12.70
2023-04-28T07:16:39.394Z,12.70
2023-04-28T07:19:24.973Z,12.70
2023-04-28T07:22:10.325Z,12.80
2023-04-28T07:24:55.997Z,12.80
2023-04-28T07:27:41.790Z,12.80
2023-04-28T07:30:28.317Z,12.70
2023-04-28T07:33:13.864Z,12.80
2023-04-28T07:35:59.477Z,12.90
2023-04-28T07:38:44.843Z,12.90
2023-04-28T07:41:30.598Z,12.90
2023-04-28T07:44:16.314Z,12.90
2023-04-28T07:47:01.999Z,12.90
2023-04-28T07:49:47.252Z,13.00
2023-04-28T07:52:33.698Z,13.00
2023-04-28T07:55:19.232Z,13.10
2023-04-28T07:58:05.335Z,13.00
2023-04-28T08:00:51.099Z,13.10
2023-04-28T08:03:37.242Z,13.10
2023-04-28T08:06:23.037Z,13.10
2023-04-28T08:09:08.691Z,13.10
2023-04-28T08:11:54.514Z,13.20
2023-04-28T08:14:40.034Z,13.30
2023-04-28T08:17:25.807Z,13.40
2023-04-28T08:20:11.384Z,13.30
2023-04-28T08:22:56.817Z,13.40
2023-04-28T08:25:42.540Z,13.60
2023-04-28T08:28:28.177Z,13.60
2023-04-28T08:31:13.663Z,13.60
2023-04-28T08:33:59.111Z,13.70
2023-04-28T08:36:44.831Z,13.70
2023-04-28T08:39:31.594Z,13.80
2023-04-28T08:42:17.881Z,13.80
2023-04-28T08:45:04.768Z,13.80
2023-04-28T08:47:51.305Z,13.90
2023-04-28T08:50:38.105Z,13.90
2023-04-28T08:53:28.044Z,14.00
2023-04-28T08:56:15.129Z,14.00
2023-04-28T08:59:06.923Z,14.00
2023-04-28T09:01:52.597Z,14.10
2023-04-28T09:04:38.517Z,14.10
2023-04-28T09:07:24.506Z,14.10
2023-04-28T09:10:18.296Z,14.10
2023-04-28T09:13:04.377Z,14.10
2023-04-28T09:15:50.980Z,14.10
2023-04-28T09:18:36.391Z,14.10
2023-04-28T09:21:21.739Z,14.10
2023-04-28T09:24:07.516Z,14.00
2023-04-28T09:26:55.345Z,14.10
2023-04-28T09:29:52.202Z,14.10
2023-04-28T09:32:37.898Z,14.10
2023-04-28T09:35:47.772Z,14.20
2023-04-28T09:38:43.367Z,14.10
2023-04-28T09:41:42.037Z,14.10
2023-04-28T09:44:27.628Z,14.20
2023-04-28T09:47:21.017Z,14.20
2023-04-28T09:50:09.364Z,14.30
2023-04-28T09:52:59.248Z,14.40
2023-04-28T09:55:46.836Z,14.40
2023-04-28T09:58:34.324Z,14.50
2023-04-28T10:01:19.901Z,14.50
2023-04-28T10:04:06.627Z,14.50
2023-04-28T10:06:53.277Z,14.50
2023-04-28T10:09:39.300Z,14.60
2023-04-28T10:12:24.910Z,14.60
2023-04-28T10:15:10.963Z,14.70
2023-04-28T10:17:57.143Z,14.70
2023-04-28T10:20:44.302Z,14.80
2023-04-28T10:23:29.992Z,14.90
2023-04-28T10:26:16.514Z,15.00
2023-04-28T10:29:01.874Z,15.10
2023-04-28T10:32:06.240Z,15.20
2023-04-28T10:34:52.696Z,15.30
2023-04-28T10:38:10.739Z,15.50
2023-04-28T10:41:02.575Z,15.70
2023-04-28T10:43:50.434Z,15.70
2023-04-28T10:46:54.817Z,15.80
2023-04-28T10:49:58.529Z,15.80
2023-04-28T10:52:44.309Z,15.80
2023-04-28T10:55:36.270Z,15.90
2023-04-28T10:58:27.856Z,16.00
2023-04-28T11:01:24.234Z,16.00
2023-04-28T11:04:15.973Z,16.00
2023-04-28T11:07:12.959Z,16.00
2023-04-28T11:09:58.510Z,16.10
2023-04-28T11:13:02.715Z,16.10
2023-04-28T11:16:02.466Z,16.20
2023-04-28T11:18:48.062Z,16.20
2023-04-28T11:21:33.912Z,16.30
2023-04-28T11:24:19.953Z,16.30
2023-04-28T11:27:05.560Z,16.40
2023-04-28T11:29:51.436Z,16.50
2023-04-28T11:32:37.320Z,16.50
2023-04-28T11:35:23.074Z,16.60
2023-04-28T11:38:08.688Z,16.70
2023-04-28T11:41:00.589Z,16.70
2023-04-28T11:43:47.593Z,16.70
2023-04-28T11:46:33.370Z,16.80
2023-04-28T11:49:18.996Z,16.80
2023-04-28T11:52:05.780Z,16.90
2023-04-28T11:54:55.530Z,16.90
2023-04-28T11:57:40.806Z,16.90
2023-04-28T12:00:26.845Z,16.90
2023-04-28T12:03:12.959Z,17.00
2023-04-28T12:05:58.943Z,17.00
2023-04-28T12:08:44.782Z,17.00
2023-04-28T12:11:31.096Z,17.00
2023-04-28T12:14:17.142Z,17.00
2023-04-28T12:17:02.752Z,17.10
2023-04-28T12:19:48.323Z,17.10
2023-04-28T12:22:49.613Z,17.10
2023-04-28T12:25:43.622Z,17.10
2023-04-28T12:28:38.991Z,17.20
2023-04-28T12:31:24.893Z,17.20
2023-04-28T12:34:10.379Z,17.30
2023-04-28T12:36:55.534Z,17.30
2023-04-28T12:39:41.779Z,17.30
2023-04-28T12:42:27.762Z,17.40
2023-04-28T12:45:13.268Z,17.40
2023-04-28T12:47:58.956Z,17.40
2023-04-28T12:50:44.776Z,17.40
2023-04-28T12:53:30.434Z,17.40
2023-04-28T12:56:16.130Z,17.40
2023-04-28T12:59:03.564Z,17.40
2023-04-28T13:01:49.651Z,17.50
2023-04-28T13:04:35.295Z,17.50
2023-04-28T13:07:20.774Z,17.50
2023-04-28T13:10:06.974Z,17.60
2023-04-28T13:12:52.431Z,17.60
2023-04-28T13:15:38.972Z,17.70
2023-04-28T13:18:24.645Z,17.70
2023-04-28T13:21:10.496Z,17.70
2023-04-28T13:23:56.624Z,17.80
2023-04-28T13:26:44.250Z,17.70
2023-04-28T13:29:30.019Z,17.70
2023-04-28T13:32:15.883Z,17.70
2023-04-28T13:35:01.248Z,17.70
2023-04-28T13:37:47.146Z,17.70
2023-04-28T13:40:33.435Z,17.70
2023-04-28T13:43:19.332Z,17.70
2023-04-28T13:46:08.354Z,17.70
2023-04-28T13:48:54.177Z,17.70
2023-04-28T13:51:39.656Z,17.70
2023-04-28T13:54:25.117Z,17.70
2023-04-28T13:57:13.582Z,17.60
2023-04-28T13:59:59.152Z,17.60
2023-04-28T14:02:46.026Z,17.60
2023-04-28T14:05:38.918Z,17.60
2023-04-28T14:08:31.650Z,17.60
2023-04-28T14:11:17.062Z,17.60
2023-04-28T14:14:03.252Z,17.60
2023-04-28T14:16:49.071Z,17.60
2023-04-28T14:19:34.578Z,17.60
2023-04-28T14:22:20.417Z,17.60
2023-04-28T14:25:06.596Z,17.60
2023-04-28T14:27:52.447Z,17.60
2023-04-28T14:30:38.064Z,17.60
2023-04-28T14:33:23.752Z,17.50
2023-04-28T14:36:10.300Z,17.50
2023-04-28T14:38:56.027Z,17.50
2023-04-28T14:41:41.329Z,17.50
2023-04-28T14:44:27.035Z,17.50
2023-04-28T14:47:12.594Z,17.50
2023-04-28T14:49:58.359Z,17.50
2023-04-28T14:52:44.188Z,17.50
2023-04-28T14:55:29.384Z,17.50
2023-04-28T14:58:15.336Z,17.50
2023-04-28T15:01:00.518Z,17.50
2023-04-28T15:03:46.331Z,17.50
2023-04-28T15:06:32.873Z,17.40
2023-04-28T15:09:19.890Z,17.40
2023-04-28T15:12:06.177Z,17.40
2023-04-28T15:14:53.648Z,17.40
2023-04-28T15:17:39.266Z,17.40
2023-04-28T15:20:24.724Z,17.40
2023-04-28T15:23:10.838Z,17.30
2023-04-28T15:25:56.493Z,17.30
2023-04-28T15:28:42.346Z,17.30
2023-04-28T15:31:28.402Z,17.20
2023-04-28T15:34:14.429Z,17.20
2023-04-28T15:36:59.968Z,17.20
2023-04-28T15:39:46.526Z,17.30
2023-04-28T15:42:32.811Z,17.30
2023-04-28T15:45:22.066Z,17.30
2023-04-28T15:48:07.699Z,17.30
2023-04-28T15:50:53.124Z,17.40
2023-04-28T15:53:38.897Z,17.40
2023-04-28T15:56:24.481Z,17.40
2023-04-28T15:59:14.794Z,17.40
2023-04-28T16:02:00.671Z,17.50
2023-04-28T16:04:46.972Z,17.50
2023-04-28T16:07:38.033Z,16.80
2023-04-28T16:10:23.639Z,17.40
2023-04-28T16:13:11.442Z,17.50
2023-04-28T16:15:57.116Z,17.40
2023-04-28T16:18:42.960Z,17.40
2023-04-28T16:21:28.495Z,17.40
2023-04-28T16:24:14.229Z,17.30
2023-04-28T16:26:59.888Z,17.30
2023-04-28T16:29:45.989Z,17.30
2023-04-28T16:32:33.667Z,17.20
2023-04-28T16:35:19.220Z,17.20
2023-04-28T16:38:05.166Z,17.20
2023-04-28T16:40:52.215Z,17.20
2023-04-28T16:43:38.368Z,17.20
2023-04-28T16:46:24.136Z,16.30
2023-04-28T16:49:09.708Z,17.20
2023-04-28T16:51:59.528Z,17.20
2023-04-28T16:54:44.960Z,17.30
2023-04-28T16:57:30.818Z,17.30
2023-04-28T17:00:16.644Z,17.30
2023-04-28T17:03:02.888Z,17.30
2023-04-28T17:05:48.464Z,17.30
2023-04-28T17:08:34.374Z,17.30
2023-04-28T17:11:20.050Z,17.30
2023-04-28T17:14:06.723Z,17.30
2023-04-28T17:16:52.588Z,17.30
2023-04-28T17:19:39.013Z,17.30
2023-04-28T17:22:24.654Z,17.20
2023-04-28T17:25:11.369Z,17.10
2023-04-28T17:27:57.309Z,17.10
2023-04-28T17:30:46.904Z,17.00
2023-04-28T17:33:32.653Z,16.80
2023-04-28T17:36:19.257Z,16.70
2023-04-28T17:39:04.656Z,16.60
2023-04-28T17:41:50.594Z,16.50
2023-04-28T17:44:36.104Z,16.50
2023-04-28T17:47:21.790Z,16.40
2023-04-28T17:50:07.530Z,16.40
2023-04-28T17:52:54.291Z,16.30
2023-04-28T17:55:39.890Z,16.30
2023-04-28T17:58:25.255Z,16.20
2023-04-28T18:01:11.001Z,16.20
2023-04-28T18:03:58.578Z,16.10
2023-04-28T18:06:44.819Z,16.10
2023-04-28T18:09:31.792Z,16.00
2023-04-28T18:12:17.868Z,16.00
2023-04-28T18:15:03.663Z,16.00
2023-04-28T18:17:49.404Z,16.00
2023-04-28T18:20:35.135Z,16.00
2023-04-28T18:23:21.392Z,15.90
2023-04-28T18:26:06.792Z,15.90
2023-04-28T18:28:53.022Z,15.90
2023-04-28T18:31:40.072Z,15.90
2023-04-28T18:34:26.329Z,15.80
2023-04-28T18:37:11.829Z,15.70
2023-04-28T18:39:57.481Z,15.70
2023-04-28T18:42:42.816Z,15.70
2023-04-28T18:45:29.624Z,15.70
2023-04-28T18:48:15.063Z,15.70
2023-04-28T18:51:01.688Z,15.70
2023-04-28T18:53:47.730Z,15.70
2023-04-28T18:56:33.509Z,15.70
2023-04-28T18:59:19.863Z,15.60
2023-04-28T19:02:05.904Z,15.70
2023-04-28T19:04:51.434Z,15.70
2023-04-28T19:07:36.695Z,15.60
2023-04-28T19:10:22.336Z,15.60
2023-04-28T19:13:08.093Z,15.60
2023-04-28T19:15:54.427Z,15.60
2023-04-28T19:18:41.940Z,15.60
2023-04-28T19:21:28.206Z,15.60
2023-04-28T19:24:13.793Z,15.60
2023-04-28T19:27:01.258Z,15.60
2023-04-28T19:29:46.854Z,15.60
2023-04-28T19:32:33.004Z,15.60
2023-04-28T19:35:20.383Z,15.60
2023-04-28T19:38:05.795Z,15.60
2023-04-28T19:40:58.342Z,15.60
2023-04-28T19:43:43.678Z,15.60
2023-04-28T19:46:29.538Z,15.60
2023-04-28T19:49:15.078Z,15.50
2023-04-28T19:52:01.095Z,15.50
2023-04-28T19:54:47.150Z,15.40
2023-04-28T19:57:32.729Z,15.40
2023-04-28T20:00:18.685Z,15.40
2023-04-28T20:03:04.172Z,15.30
2023-04-28T20:05:49.929Z,15.40
2023-04-28T20:08:35.242Z,15.40
2023-04-28T20:11:20.938Z,15.40
2023-04-28T20:14:06.632Z,15.40
2023-04-28T20:16:52.316Z,15.40
2023-04-28T20:19:38.685Z,15.40
2023-04-28T20:22:24.297Z,15.40
2023-04-28T20:25:10.737Z,15.40
2023-04-28T20:27:56.238Z,15.40
2023-04-28T20:30:44.907Z,15.40
2023-04-28T20:33:30.522Z,15.40
2023-04-28T20:36:16.241Z,15.40
2023-04-28T20:39:01.478Z,15.30
2023-04-28T20:41:47.905Z,15.30
2023-04-28T20:44:34.519Z,15.30
2023-04-28T20:47:19.923Z,15.20
2023-04-28T20:50:06.554Z,15.20
2023-04-28T20:52:52.108Z,15.20
2023-04-28T20:55:38.199Z,15.30
2023-04-28T20:58:25.116Z,15.30
2023-04-28T21:01:10.793Z,15.30
2023-04-28T21:03:56.871Z,15.30
2023-04-28T21:06:42.738Z,15.30
2023-04-28T21:09:28.380Z,15.20
2023-04-28T21:12:13.875Z,15.20
2023-04-28T21:15:00.771Z,15.20
2023-04-28T21:17:46.189Z,15.20
2023-04-28T21:20:32.145Z,15.20
2023-04-28T21:23:17.540Z,15.20
2023-04-28T21:26:03.427Z,15.10
2023-04-28T21:28:48.907Z,15.20
2023-04-28T21:31:34.531Z,15.20
2023-04-28T21:34:20.322Z,15.20
2023-04-28T21:37:05.718Z,15.20
2023-04-28T21:39:51.384Z,15.10
2023-04-28T21:42:37.006Z,15.20
2023-04-28T21:45:22.627Z,15.20
2023-04-28T21:48:08.562Z,15.10
2023-04-28T21:50:54.459Z,15.20
2023-04-28T21:53:40.384Z,15.20
2023-04-28T21:56:25.830Z,15.20
2023-04-28T21:59:11.385Z,15.30
2023-04-28T22:01:57.402Z,15.30
2023-04-28T22:04:43.456Z,15.20
2023-04-28T22:07:29.789Z,15.20
2023-04-28T22:10:17.068Z,15.20
2023-04-28T22:13:02.594Z,15.20
2023-04-28T22:15:47.953Z,15.20
2023-04-28T22:18:33.664Z,15.10
2023-04-28T22:21:19.357Z,15.20
2023-04-28T22:24:06.781Z,15.20
2023-04-28T22:26:52.085Z,15.20
2023-04-28T22:29:37.716Z,15.10
2023-04-28T22:32:23.538Z,15.10
2023-04-28T22:35:09.457Z,15.20
2023-04-28T22:37:55.182Z,15.10
2023-04-28T22:40:40.794Z,15.10
2023-04-28T22:43:26.365Z,15.10
2023-04-28T22:46:12.088Z,15.10
2023-04-28T22:48:57.554Z,15.10
2023-04-28T22:51:42.992Z,15.10
2023-04-28T22:54:28.395Z,15.00
2023-04-28T22:57:14.036Z,15.00
2023-04-28T22:59:59.772Z,15.00
2023-04-28T23:02:45.475Z,15.00
2023-04-28T23:05:31.580Z,14.90
2023-04-28T23:08:17.391Z,14.90
2023-04-28T23:11:06.694Z,14.90
2023-04-28T23:13:52.467Z,15.00
2023-04-28T23:16:38.379Z,14.90
2023-04-28T23:19:24.322Z,14.80
2023-04-28T23:22:10.008Z,14.90
2023-04-28T23:24:55.709Z,14.90
2023-04-28T23:27:41.166Z,15.00
2023-04-28T23:30:27.173Z,15.00
2023-04-28T23:33:12.490Z,14.90
2023-04-28T23:35:58.162Z,14.80
2023-04-28T23:38:43.655Z,14.80
2023-04-28T23:41:29.366Z,14.80
2023-04-28T23:44:14.943Z,14.80
2023-04-28T23:47:00.553Z,14.80
2023-04-28T23:49:46.154Z,14.70
2023-04-28T23:52:32.120Z,14.70
2023-04-28T23:55:17.923Z,14.70
2023-04-28T23:58:03.695Z,14.80
